sensor_id;sensor_type;location;lat;lon;timestamp;temperature;humidity
22290;DHT22;11313;50.116;8.424;2023-02-28T00:01:22;24.80;37.10
22290;DHT22;11313;50.116;8.424;2023-02-28T00:03:48;24.80;37.10
22290;DHT22;11313;50.116;8.424;2023-02-28T00:06:13;24.80;37.10
22290;DHT22;11313;50.116;8.424;2023-02-28T00:08:39;24.80;37.20
22290;DHT22;11313;50.116;8.424;2023-02-28T00:11:07;24.80;37.10
22290;DHT22;11313;50.116;8.424;2023-02-28T00:13:38;24.80;37.10
22290;DHT22;11313;50.116;8.424;2023-02-28T00:16:17;24.80;37.20
22290;DHT22;11313;50.116;8.424;2023-02-28T00:18:42;24.80;37.10
22290;DHT22;11313;50.116;8.424;2023-02-28T00:21:08;24.80;37.10
22290;DHT22;11313;50.116;8.424;2023-02-28T00:23:34;24.80;37.10
22290;DHT22;11313;50.116;8.424;2023-02-28T00:26:00;24.80;37.20
22290;DHT22;11313;50.116;8.424;2023-02-28T00:28:26;24.80;37.20
22290;DHT22;11313;50.116;8.424;2023-02-28T00:30:51;24.80;37.20
22290;DHT22;11313;50.116;8.424;2023-02-28T00:33:17;24.80;37.20
22290;DHT22;11313;50.116;8.424;2023-02-28T00:35:43;24.80;37.20
22290;DHT22;11313;50.116;8.424;2023-02-28T00:38:12;24.70;37.10
22290;DHT22;11313;50.116;8.424;2023-02-28T00:40:37;24.80;37.20
22290;DHT22;11313;50.116;8.424;2023-02-28T00:43:03;24.70;37.30
22290;DHT22;11313;50.116;8.424;2023-02-28T00:45:29;24.70;37.20
22290;DHT22;11313;50.116;8.424;2023-02-28T00:47:55;24.70;37.20
22290;DHT22;11313;50.116;8.424;2023-02-28T00:50:20;24.70;37.20
22290;DHT22;11313;50.116;8.424;2023-02-28T00:52:47;24.80;37.20
22290;DHT22;11313;50.116;8.424;2023-02-28T00:55:12;24.70;37.20
22290;DHT22;11313;50.116;8.424;2023-02-28T00:57:38;24.70;37.20
22290;DHT22;11313;50.116;8.424;2023-02-28T01:00:04;24.70;37.20
22290;DHT22;11313;50.116;8.424;2023-02-28T01:02:30;24.70;37.20
22290;DHT22;11313;50.116;8.424;2023-02-28T01:04:56;24.70;37.20
22290;DHT22;11313;50.116;8.424;2023-02-28T01:07:22;24.60;37.20
22290;DHT22;11313;50.116;8.424;2023-02-28T01:09:48;24.70;37.20
22290;DHT22;11313;50.116;8.424;2023-02-28T01:12:13;24.70;37.30
22290;DHT22;11313;50.116;8.424;2023-02-28T01:14:39;24.70;37.30
22290;DHT22;11313;50.116;8.424;2023-02-28T01:17:04;24.70;37.30
22290;DHT22;11313;50.116;8.424;2023-02-28T01:19:30;24.70;37.30
22290;DHT22;11313;50.116;8.424;2023-02-28T01:21:55;24.70;37.30
22290;DHT22;11313;50.116;8.424;2023-02-28T01:24:21;24.70;37.30
22290;DHT22;11313;50.116;8.424;2023-02-28T01:26:46;24.70;37.30
22290;DHT22;11313;50.116;8.424;2023-02-28T01:29:12;24.70;37.30
22290;DHT22;11313;50.116;8.424;2023-02-28T01:31:37;24.70;37.30
22290;DHT22;11313;50.116;8.424;2023-02-28T01:34:03;24.70;37.30
22290;DHT22;11313;50.116;8.424;2023-02-28T01:36:29;24.70;37.30
22290;DHT22;11313;50.116;8.424;2023-02-28T01:38:54;24.70;37.30
22290;DHT22;11313;50.116;8.424;2023-02-28T01:41:24;24.70;37.30
22290;DHT22;11313;50.116;8.424;2023-02-28T01:46:15;24.70;37.30
22290;DHT22;11313;50.116;8.424;2023-02-28T01:48:55;24.70;37.30
22290;DHT22;11313;50.116;8.424;2023-02-28T01:51:49;24.70;37.20
22290;DHT22;11313;50.116;8.424;2023-02-28T01:54:24;24.70;37.20
22290;DHT22;11313;50.116;8.424;2023-02-28T01:57:05;24.70;37.20
22290;DHT22;11313;50.116;8.424;2023-02-28T01:59:37;24.70;37.20
22290;DHT22;11313;50.116;8.424;2023-02-28T02:02:05;24.80;37.30
22290;DHT22;11313;50.116;8.424;2023-02-28T02:04:37;24.70;37.20
22290;DHT22;11313;50.116;8.424;2023-02-28T02:07:04;24.80;37.30
22290;DHT22;11313;50.116;8.424;2023-02-28T02:09:29;24.70;37.20
22290;DHT22;11313;50.116;8.424;2023-02-28T02:11:55;24.80;37.20
22290;DHT22;11313;50.116;8.424;2023-02-28T02:14:53;24.70;37.10
22290;DHT22;11313;50.116;8.424;2023-02-28T02:17:38;24.80;37.20
22290;DHT22;11313;50.116;8.424;2023-02-28T02:31:33;24.80;37.10
22290;DHT22;11313;50.116;8.424;2023-02-28T02:34:26;24.80;37.10
22290;DHT22;11313;50.116;8.424;2023-02-28T02:36:56;24.80;37.10
22290;DHT22;11313;50.116;8.424;2023-02-28T02:45:35;24.80;37.10
22290;DHT22;11313;50.116;8.424;2023-02-28T02:48:06;24.80;37.10
22290;DHT22;11313;50.116;8.424;2023-02-28T02:50:52;24.80;37.00
22290;DHT22;11313;50.116;8.424;2023-02-28T02:53:23;24.80;37.10
22290;DHT22;11313;50.116;8.424;2023-02-28T02:55:51;24.80;37.10
22290;DHT22;11313;50.116;8.424;2023-02-28T02:58:24;24.80;37.10
22290;DHT22;11313;50.116;8.424;2023-02-28T03:00:51;24.80;37.10
22290;DHT22;11313;50.116;8.424;2023-02-28T03:03:19;24.80;37.10
22290;DHT22;11313;50.116;8.424;2023-02-28T03:05:55;24.80;37.10
22290;DHT22;11313;50.116;8.424;2023-02-28T03:08:22;24.70;37.00
22290;DHT22;11313;50.116;8.424;2023-02-28T03:11:01;24.70;37.00
22290;DHT22;11313;50.116;8.424;2023-02-28T03:13:52;24.70;37.00
22290;DHT22;11313;50.116;8.424;2023-02-28T03:19:24;24.70;37.10
22290;DHT22;11313;50.116;8.424;2023-02-28T03:27:47;24.70;37.00
22290;DHT22;11313;50.116;8.424;2023-02-28T03:33:14;24.70;37.10
22290;DHT22;11313;50.116;8.424;2023-02-28T03:35:45;24.70;37.10
22290;DHT22;11313;50.116;8.424;2023-02-28T03:38:20;24.70;37.10
22290;DHT22;11313;50.116;8.424;2023-02-28T03:40:50;24.70;37.10
22290;DHT22;11313;50.116;8.424;2023-02-28T03:43:30;24.70;37.10
22290;DHT22;11313;50.116;8.424;2023-02-28T03:45:58;24.70;37.10
22290;DHT22;11313;50.116;8.424;2023-02-28T03:48:33;24.70;37.10
22290;DHT22;11313;50.116;8.424;2023-02-28T03:51:01;24.70;37.10
22290;DHT22;11313;50.116;8.424;2023-02-28T03:53:39;24.70;37.10
22290;DHT22;11313;50.116;8.424;2023-02-28T03:56:22;24.70;37.10
22290;DHT22;11313;50.116;8.424;2023-02-28T03:59:01;24.70;37.00
22290;DHT22;11313;50.116;8.424;2023-02-28T04:03:59;24.70;37.10
22290;DHT22;11313;50.116;8.424;2023-02-28T04:06:25;24.70;37.00
22290;DHT22;11313;50.116;8.424;2023-02-28T04:08:51;24.70;37.00
22290;DHT22;11313;50.116;8.424;2023-02-28T04:13:45;24.70;37.00
22290;DHT22;11313;50.116;8.424;2023-02-28T04:16:11;24.70;37.60
22290;DHT22;11313;50.116;8.424;2023-02-28T04:18:40;24.70;37.00
22290;DHT22;11313;50.116;8.424;2023-02-28T04:21:06;24.70;37.00
22290;DHT22;11313;50.116;8.424;2023-02-28T04:23:32;24.70;36.90
22290;DHT22;11313;50.116;8.424;2023-02-28T04:25:58;24.70;36.90
22290;DHT22;11313;50.116;8.424;2023-02-28T04:28:23;24.70;36.90
22290;DHT22;11313;50.116;8.424;2023-02-28T04:31:04;24.80;36.90
22290;DHT22;11313;50.116;8.424;2023-02-28T04:33:31;24.80;36.90
22290;DHT22;11313;50.116;8.424;2023-02-28T04:36:02;24.80;36.90
22290;DHT22;11313;50.116;8.424;2023-02-28T04:38:32;24.80;36.90
22290;DHT22;11313;50.116;8.424;2023-02-28T04:40:59;24.80;36.90
22290;DHT22;11313;50.116;8.424;2023-02-28T04:43:26;24.80;36.90
22290;DHT22;11313;50.116;8.424;2023-02-28T04:45:52;24.80;36.90
22290;DHT22;11313;50.116;8.424;2023-02-28T04:48:18;24.80;36.90
22290;DHT22;11313;50.116;8.424;2023-02-28T04:50:43;24.80;36.90
22290;DHT22;11313;50.116;8.424;2023-02-28T04:53:09;24.80;36.80
22290;DHT22;11313;50.116;8.424;2023-02-28T04:55:34;24.80;36.80
22290;DHT22;11313;50.116;8.424;2023-02-28T04:58:00;24.90;36.90
22290;DHT22;11313;50.116;8.424;2023-02-28T05:00:25;24.90;36.80
22290;DHT22;11313;50.116;8.424;2023-02-28T05:02:51;24.90;36.70
22290;DHT22;11313;50.116;8.424;2023-02-28T05:05:16;24.90;36.70
22290;DHT22;11313;50.116;8.424;2023-02-28T05:07:44;24.90;36.80
22290;DHT22;11313;50.116;8.424;2023-02-28T05:10:10;24.90;36.70
22290;DHT22;11313;50.116;8.424;2023-02-28T05:12:36;24.90;36.70
22290;DHT22;11313;50.116;8.424;2023-02-28T05:15:02;24.90;36.80
22290;DHT22;11313;50.116;8.424;2023-02-28T05:17:28;24.90;37.00
22290;DHT22;11313;50.116;8.424;2023-02-28T05:19:53;24.90;37.10
22290;DHT22;11313;50.116;8.424;2023-02-28T05:22:19;25.00;37.80
22290;DHT22;11313;50.116;8.424;2023-02-28T05:24:44;24.90;38.00
22290;DHT22;11313;50.116;8.424;2023-02-28T05:27:10;25.00;38.20
22290;DHT22;11313;50.116;8.424;2023-02-28T05:29:35;24.90;38.40
22290;DHT22;11313;50.116;8.424;2023-02-28T05:32:10;25.00;38.30
22290;DHT22;11313;50.116;8.424;2023-02-28T05:34:39;24.90;38.20
22290;DHT22;11313;50.116;8.424;2023-02-28T05:37:06;25.00;38.20
22290;DHT22;11313;50.116;8.424;2023-02-28T05:39:32;24.90;38.10
22290;DHT22;11313;50.116;8.424;2023-02-28T05:41:57;24.90;38.20
22290;DHT22;11313;50.116;8.424;2023-02-28T05:44:23;25.00;38.20
22290;DHT22;11313;50.116;8.424;2023-02-28T05:46:48;24.90;38.10
22290;DHT22;11313;50.116;8.424;2023-02-28T05:49:14;24.90;38.10
22290;DHT22;11313;50.116;8.424;2023-02-28T05:51:39;24.90;38.00
22290;DHT22;11313;50.116;8.424;2023-02-28T05:54:05;24.90;37.90
22290;DHT22;11313;50.116;8.424;2023-02-28T05:56:31;24.90;37.90
22290;DHT22;11313;50.116;8.424;2023-02-28T05:58:57;24.90;37.90
22290;DHT22;11313;50.116;8.424;2023-02-28T06:01:38;24.90;37.80
22290;DHT22;11313;50.116;8.424;2023-02-28T06:04:06;24.90;37.70
22290;DHT22;11313;50.116;8.424;2023-02-28T06:06:32;24.80;38.00
22290;DHT22;11313;50.116;8.424;2023-02-28T06:09:00;24.80;38.00
22290;DHT22;11313;50.116;8.424;2023-02-28T06:11:26;24.80;37.80
22290;DHT22;11313;50.116;8.424;2023-02-28T06:13:58;24.90;37.80
22290;DHT22;11313;50.116;8.424;2023-02-28T06:16:25;24.90;37.70
22290;DHT22;11313;50.116;8.424;2023-02-28T06:18:51;24.80;37.70
22290;DHT22;11313;50.116;8.424;2023-02-28T06:21:18;24.80;37.60
22290;DHT22;11313;50.116;8.424;2023-02-28T06:23:43;24.90;37.70
22290;DHT22;11313;50.116;8.424;2023-02-28T06:26:09;24.90;37.60
22290;DHT22;11313;50.116;8.424;2023-02-28T06:28:34;24.90;37.50
22290;DHT22;11313;50.116;8.424;2023-02-28T06:31:08;24.80;37.40
22290;DHT22;11313;50.116;8.424;2023-02-28T06:33:35;24.90;37.40
22290;DHT22;11313;50.116;8.424;2023-02-28T06:36:00;24.90;37.40
22290;DHT22;11313;50.116;8.424;2023-02-28T06:38:26;24.90;37.30
22290;DHT22;11313;50.116;8.424;2023-02-28T06:40:56;24.90;37.30
22290;DHT22;11313;50.116;8.424;2023-02-28T06:43:22;24.90;37.30
22290;DHT22;11313;50.116;8.424;2023-02-28T06:45:47;24.90;37.20
22290;DHT22;11313;50.116;8.424;2023-02-28T06:48:13;24.90;37.10
22290;DHT22;11313;50.116;8.424;2023-02-28T06:50:38;24.90;37.20
22290;DHT22;11313;50.116;8.424;2023-02-28T06:53:04;24.90;37.20
22290;DHT22;11313;50.116;8.424;2023-02-28T06:55:30;24.90;37.10
22290;DHT22;11313;50.116;8.424;2023-02-28T06:57:55;24.90;37.20
22290;DHT22;11313;50.116;8.424;2023-02-28T07:00:21;24.90;37.00
22290;DHT22;11313;50.116;8.424;2023-02-28T07:02:46;24.90;37.10
22290;DHT22;11313;50.116;8.424;2023-02-28T07:05:12;24.90;36.90
22290;DHT22;11313;50.116;8.424;2023-02-28T07:07:38;24.90;36.90
22290;DHT22;11313;50.116;8.424;2023-02-28T07:10:09;24.90;36.80
22290;DHT22;11313;50.116;8.424;2023-02-28T07:12:36;24.90;36.90
22290;DHT22;11313;50.116;8.424;2023-02-28T07:15:02;24.90;36.80
22290;DHT22;11313;50.116;8.424;2023-02-28T07:17:28;24.90;36.70
22290;DHT22;11313;50.116;8.424;2023-02-28T07:19:53;25.00;36.70
22290;DHT22;11313;50.116;8.424;2023-02-28T07:22:19;25.00;36.70
22290;DHT22;11313;50.116;8.424;2023-02-28T07:24:44;25.00;36.60
22290;DHT22;11313;50.116;8.424;2023-02-28T07:27:10;25.00;36.50
22290;DHT22;11313;50.116;8.424;2023-02-28T07:29:35;25.00;36.50
22290;DHT22;11313;50.116;8.424;2023-02-28T07:32:02;25.00;36.50
22290;DHT22;11313;50.116;8.424;2023-02-28T07:34:28;25.00;36.40
22290;DHT22;11313;50.116;8.424;2023-02-28T07:36:53;25.10;36.40
22290;DHT22;11313;50.116;8.424;2023-02-28T07:39:20;25.00;36.30
22290;DHT22;11313;50.116;8.424;2023-02-28T07:41:45;25.10;36.40
22290;DHT22;11313;50.116;8.424;2023-02-28T07:44:11;25.10;36.40
22290;DHT22;11313;50.116;8.424;2023-02-28T07:46:37;25.10;36.30
22290;DHT22;11313;50.116;8.424;2023-02-28T07:49:02;25.10;36.30
22290;DHT22;11313;50.116;8.424;2023-02-28T07:51:29;25.00;36.20
22290;DHT22;11313;50.116;8.424;2023-02-28T07:53:55;25.10;36.20
22290;DHT22;11313;50.116;8.424;2023-02-28T07:56:20;25.00;36.20
22290;DHT22;11313;50.116;8.424;2023-02-28T07:58:46;25.10;36.10
22290;DHT22;11313;50.116;8.424;2023-02-28T08:01:12;25.10;36.10
22290;DHT22;11313;50.116;8.424;2023-02-28T08:03:38;25.10;36.10
22290;DHT22;11313;50.116;8.424;2023-02-28T08:06:05;25.10;36.10
22290;DHT22;11313;50.116;8.424;2023-02-28T08:08:31;25.10;36.10
22290;DHT22;11313;50.116;8.424;2023-02-28T08:11:01;25.00;36.10
22290;DHT22;11313;50.116;8.424;2023-02-28T08:13:28;25.00;36.00
22290;DHT22;11313;50.116;8.424;2023-02-28T08:15:55;25.00;36.10
22290;DHT22;11313;50.116;8.424;2023-02-28T08:18:20;25.10;36.10
22290;DHT22;11313;50.116;8.424;2023-02-28T08:20:46;25.00;36.10
22290;DHT22;11313;50.116;8.424;2023-02-28T08:23:12;25.10;36.10
22290;DHT22;11313;50.116;8.424;2023-02-28T08:25:37;25.00;36.10
22290;DHT22;11313;50.116;8.424;2023-02-28T08:28:03;25.10;36.10
22290;DHT22;11313;50.116;8.424;2023-02-28T08:30:28;25.00;36.00
22290;DHT22;11313;50.116;8.424;2023-02-28T08:32:54;25.00;36.10
22290;DHT22;11313;50.116;8.424;2023-02-28T08:35:20;25.00;36.10
22290;DHT22;11313;50.116;8.424;2023-02-28T08:37:49;25.00;36.10
22290;DHT22;11313;50.116;8.424;2023-02-28T08:40:16;25.00;36.10
22290;DHT22;11313;50.116;8.424;2023-02-28T08:42:46;25.00;36.10
22290;DHT22;11313;50.116;8.424;2023-02-28T08:45:13;25.00;36.10
22290;DHT22;11313;50.116;8.424;2023-02-28T08:47:39;25.00;36.10
22290;DHT22;11313;50.116;8.424;2023-02-28T08:50:05;25.00;36.10
22290;DHT22;11313;50.116;8.424;2023-02-28T08:52:31;25.00;36.20
22290;DHT22;11313;50.116;8.424;2023-02-28T08:54:56;25.00;36.10
22290;DHT22;11313;50.116;8.424;2023-02-28T08:57:22;25.00;36.20
22290;DHT22;11313;50.116;8.424;2023-02-28T08:59:47;25.00;36.20
22290;DHT22;11313;50.116;8.424;2023-02-28T09:02:13;25.00;36.20
22290;DHT22;11313;50.116;8.424;2023-02-28T09:04:40;25.00;36.30
22290;DHT22;11313;50.116;8.424;2023-02-28T09:07:07;25.00;36.30
22290;DHT22;11313;50.116;8.424;2023-02-28T09:09:32;24.90;36.30
22290;DHT22;11313;50.116;8.424;2023-02-28T09:11:58;25.00;36.30
22290;DHT22;11313;50.116;8.424;2023-02-28T09:14:24;24.90;36.30
22290;DHT22;11313;50.116;8.424;2023-02-28T09:16:49;24.90;36.30
22290;DHT22;11313;50.116;8.424;2023-02-28T09:19:15;24.90;36.30
22290;DHT22;11313;50.116;8.424;2023-02-28T09:21:40;24.90;36.30
22290;DHT22;11313;50.116;8.424;2023-02-28T09:24:06;24.90;36.40
22290;DHT22;11313;50.116;8.424;2023-02-28T09:26:32;24.90;36.30
22290;DHT22;11313;50.116;8.424;2023-02-28T09:28:59;24.90;36.40
22290;DHT22;11313;50.116;8.424;2023-02-28T09:31:27;24.90;36.40
22290;DHT22;11313;50.116;8.424;2023-02-28T09:33:55;24.90;36.40
22290;DHT22;11313;50.116;8.424;2023-02-28T09:36:22;24.90;36.40
22290;DHT22;11313;50.116;8.424;2023-02-28T09:38:48;24.90;36.50
22290;DHT22;11313;50.116;8.424;2023-02-28T09:41:20;24.90;36.50
22290;DHT22;11313;50.116;8.424;2023-02-28T09:43:55;24.90;36.50
22290;DHT22;11313;50.116;8.424;2023-02-28T09:46:29;24.90;36.50
22290;DHT22;11313;50.116;8.424;2023-02-28T09:48:57;24.90;36.40
22290;DHT22;11313;50.116;8.424;2023-02-28T09:53:55;25.00;36.50
22290;DHT22;11313;50.116;8.424;2023-02-28T09:56:45;24.90;36.40
22290;DHT22;11313;50.116;8.424;2023-02-28T09:59:25;24.90;36.50
22290;DHT22;11313;50.116;8.424;2023-02-28T10:05:00;25.00;36.40
22290;DHT22;11313;50.116;8.424;2023-02-28T10:10:33;25.00;36.40
22290;DHT22;11313;50.116;8.424;2023-02-28T10:13:04;25.00;36.40
22290;DHT22;11313;50.116;8.424;2023-02-28T10:15:31;25.10;36.40
22290;DHT22;11313;50.116;8.424;2023-02-28T10:18:02;25.00;36.30
22290;DHT22;11313;50.116;8.424;2023-02-28T10:20:32;25.00;36.30
22290;DHT22;11313;50.116;8.424;2023-02-28T10:23:11;25.10;36.30
22290;DHT22;11313;50.116;8.424;2023-02-28T10:25:39;25.10;36.20
22290;DHT22;11313;50.116;8.424;2023-02-28T10:30:39;25.10;36.20
22290;DHT22;11313;50.116;8.424;2023-02-28T10:33:05;25.10;36.20
22290;DHT22;11313;50.116;8.424;2023-02-28T10:35:30;25.10;36.30
22290;DHT22;11313;50.116;8.424;2023-02-28T10:38:00;25.10;36.20
22290;DHT22;11313;50.116;8.424;2023-02-28T10:40:33;25.10;36.20
22290;DHT22;11313;50.116;8.424;2023-02-28T10:46:13;25.10;36.10
22290;DHT22;11313;50.116;8.424;2023-02-28T10:48:44;25.10;36.20
22290;DHT22;11313;50.116;8.424;2023-02-28T10:51:13;25.10;36.10
22290;DHT22;11313;50.116;8.424;2023-02-28T10:53:50;25.10;36.10
22290;DHT22;11313;50.116;8.424;2023-02-28T10:56:24;25.10;36.10
22290;DHT22;11313;50.116;8.424;2023-02-28T11:01:40;25.10;36.10
22290;DHT22;11313;50.116;8.424;2023-02-28T11:07:03;25.10;36.10
22290;DHT22;11313;50.116;8.424;2023-02-28T11:09:40;25.10;36.10
22290;DHT22;11313;50.116;8.424;2023-02-28T11:12:07;25.20;36.20
22290;DHT22;11313;50.116;8.424;2023-02-28T11:14:46;25.30;36.30
22290;DHT22;11313;50.116;8.424;2023-02-28T11:17:21;25.10;36.10
22290;DHT22;11313;50.116;8.424;2023-02-28T11:19:51;25.10;36.10
22290;DHT22;11313;50.116;8.424;2023-02-28T11:22:23;25.10;36.10
22290;DHT22;11313;50.116;8.424;2023-02-28T11:24:53;25.10;36.10
22290;DHT22;11313;50.116;8.424;2023-02-28T11:27:43;25.10;36.20
22290;DHT22;11313;50.116;8.424;2023-02-28T11:30:42;25.10;36.20
22290;DHT22;11313;50.116;8.424;2023-02-28T11:33:40;25.10;36.20
22290;DHT22;11313;50.116;8.424;2023-02-28T11:36:20;25.10;36.20
22290;DHT22;11313;50.116;8.424;2023-02-28T11:38:51;25.10;36.30
22290;DHT22;11313;50.116;8.424;2023-02-28T11:41:30;25.10;36.30
22290;DHT22;11313;50.116;8.424;2023-02-28T11:46:36;25.10;36.30
22290;DHT22;11313;50.116;8.424;2023-02-28T11:54:56;25.10;36.30
22290;DHT22;11313;50.116;8.424;2023-02-28T11:57:30;25.10;36.40
22290;DHT22;11313;50.116;8.424;2023-02-28T12:00:19;25.10;36.40
22290;DHT22;11313;50.116;8.424;2023-02-28T12:10:50;25.10;36.40
22290;DHT22;11313;50.116;8.424;2023-02-28T12:13:26;25.10;36.50
22290;DHT22;11313;50.116;8.424;2023-02-28T12:16:20;25.10;36.50
22290;DHT22;11313;50.116;8.424;2023-02-28T12:24:21;25.10;36.50
22290;DHT22;11313;50.116;8.424;2023-02-28T12:26:50;25.10;36.60
22290;DHT22;11313;50.116;8.424;2023-02-28T12:29:26;25.10;36.60
22290;DHT22;11313;50.116;8.424;2023-02-28T12:32:01;25.10;36.60
22290;DHT22;11313;50.116;8.424;2023-02-28T12:34:33;25.10;36.60
22290;DHT22;11313;50.116;8.424;2023-02-28T12:37:06;25.10;36.70
22290;DHT22;11313;50.116;8.424;2023-02-28T12:39:36;25.10;36.70
22290;DHT22;11313;50.116;8.424;2023-02-28T12:42:14;25.10;37.30
22290;DHT22;11313;50.116;8.424;2023-02-28T12:44:47;25.10;36.70
22290;DHT22;11313;50.116;8.424;2023-02-28T12:47:16;25.10;36.70
22290;DHT22;11313;50.116;8.424;2023-02-28T12:49:50;25.10;36.70
22290;DHT22;11313;50.116;8.424;2023-02-28T12:52:28;25.10;36.70
22290;DHT22;11313;50.116;8.424;2023-02-28T12:55:05;25.10;36.70
22290;DHT22;11313;50.116;8.424;2023-02-28T12:57:41;25.10;36.70
22290;DHT22;11313;50.116;8.424;2023-02-28T13:00:21;25.10;36.70
22290;DHT22;11313;50.116;8.424;2023-02-28T13:06:12;25.10;36.70
22290;DHT22;11313;50.116;8.424;2023-02-28T13:08:59;25.10;36.70
22290;DHT22;11313;50.116;8.424;2023-02-28T13:14:04;25.10;36.70
22290;DHT22;11313;50.116;8.424;2023-02-28T13:16:56;25.10;36.70
22290;DHT22;11313;50.116;8.424;2023-02-28T13:19:25;25.10;36.70
22290;DHT22;11313;50.116;8.424;2023-02-28T13:21:51;25.10;36.70
22290;DHT22;11313;50.116;8.424;2023-02-28T13:24:42;25.20;36.70
22290;DHT22;11313;50.116;8.424;2023-02-28T13:29:38;25.10;36.70
22290;DHT22;11313;50.116;8.424;2023-02-28T13:35:34;25.10;36.70
22290;DHT22;11313;50.116;8.424;2023-02-28T13:40:44;25.20;36.70
22290;DHT22;11313;50.116;8.424;2023-02-28T13:42:49;25.20;36.70
22290;DHT22;11313;50.116;8.424;2023-02-28T13:45:26;25.20;36.80
22290;DHT22;11313;50.116;8.424;2023-02-28T13:56:03;25.20;36.80
22290;DHT22;11313;50.116;8.424;2023-02-28T14:04:07;25.10;36.80
22290;DHT22;11313;50.116;8.424;2023-02-28T14:06:38;25.20;36.80
22290;DHT22;11313;50.116;8.424;2023-02-28T14:11:39;25.10;36.80
22290;DHT22;11313;50.116;8.424;2023-02-28T14:14:07;25.30;36.90
22290;DHT22;11313;50.116;8.424;2023-02-28T14:16:41;25.20;36.90
22290;DHT22;11313;50.116;8.424;2023-02-28T14:19:26;25.10;36.80
22290;DHT22;11313;50.116;8.424;2023-02-28T14:22:01;25.10;36.80
22290;DHT22;11313;50.116;8.424;2023-02-28T14:25:15;25.10;36.90
22290;DHT22;11313;50.116;8.424;2023-02-28T14:34:02;25.10;36.90
22290;DHT22;11313;50.116;8.424;2023-02-28T14:36:35;25.10;36.90
22290;DHT22;11313;50.116;8.424;2023-02-28T14:39:24;25.10;36.90
22290;DHT22;11313;50.116;8.424;2023-02-28T14:41:51;25.10;37.00
22290;DHT22;11313;50.116;8.424;2023-02-28T14:44:26;25.10;37.60
22290;DHT22;11313;50.116;8.424;2023-02-28T14:46:57;25.10;36.90
22290;DHT22;11313;50.116;8.424;2023-02-28T14:49:32;25.10;36.90
22290;DHT22;11313;50.116;8.424;2023-02-28T14:52:14;25.10;37.00
22290;DHT22;11313;50.116;8.424;2023-02-28T14:54:41;25.10;37.00
22290;DHT22;11313;50.116;8.424;2023-02-28T14:57:30;25.10;37.00
22290;DHT22;11313;50.116;8.424;2023-02-28T15:00:35;25.00;37.00
22290;DHT22;11313;50.116;8.424;2023-02-28T15:03:36;25.10;37.00
22290;DHT22;11313;50.116;8.424;2023-02-28T15:06:13;25.00;37.00
22290;DHT22;11313;50.116;8.424;2023-02-28T15:08:39;25.10;37.10
22290;DHT22;11313;50.116;8.424;2023-02-28T15:11:08;25.00;37.00
22290;DHT22;11313;50.116;8.424;2023-02-28T15:13:41;25.00;37.00
22290;DHT22;11313;50.116;8.424;2023-02-28T15:16:16;25.00;37.00
22290;DHT22;11313;50.116;8.424;2023-02-28T15:18:53;25.10;37.10
22290;DHT22;11313;50.116;8.424;2023-02-28T15:21:23;25.00;37.10
22290;DHT22;11313;50.116;8.424;2023-02-28T15:26:43;25.00;37.10
22290;DHT22;11313;50.116;8.424;2023-02-28T15:29:17;25.10;37.10
22290;DHT22;11313;50.116;8.424;2023-02-28T15:31:48;25.10;37.10
22290;DHT22;11313;50.116;8.424;2023-02-28T15:34:41;25.00;37.10
22290;DHT22;11313;50.116;8.424;2023-02-28T15:39:55;25.10;37.20
22290;DHT22;11313;50.116;8.424;2023-02-28T15:42:23;25.00;37.10
22290;DHT22;11313;50.116;8.424;2023-02-28T15:44:52;25.10;37.10
22290;DHT22;11313;50.116;8.424;2023-02-28T15:47:23;25.10;37.10
22290;DHT22;11313;50.116;8.424;2023-02-28T15:49:57;25.10;37.10
22290;DHT22;11313;50.116;8.424;2023-02-28T15:52:41;25.10;37.10
22290;DHT22;11313;50.116;8.424;2023-02-28T15:55:30;25.10;37.10
22290;DHT22;11313;50.116;8.424;2023-02-28T15:57:59;25.10;37.10
22290;DHT22;11313;50.116;8.424;2023-02-28T16:00:27;25.10;37.00
22290;DHT22;11313;50.116;8.424;2023-02-28T16:02:53;25.10;37.00
22290;DHT22;11313;50.116;8.424;2023-02-28T16:05:27;25.10;37.00
22290;DHT22;11313;50.116;8.424;2023-02-28T16:07:58;25.10;37.00
22290;DHT22;11313;50.116;8.424;2023-02-28T16:10:25;25.10;37.00
22290;DHT22;11313;50.116;8.424;2023-02-28T16:12:54;25.10;37.00
22290;DHT22;11313;50.116;8.424;2023-02-28T16:15:26;25.10;37.00
22290;DHT22;11313;50.116;8.424;2023-02-28T16:17:53;25.10;36.90
22290;DHT22;11313;50.116;8.424;2023-02-28T16:20:22;25.10;36.90
22290;DHT22;11313;50.116;8.424;2023-02-28T16:22:48;25.10;36.90
22290;DHT22;11313;50.116;8.424;2023-02-28T16:25:16;25.10;36.90
22290;DHT22;11313;50.116;8.424;2023-02-28T16:27:43;25.10;36.90
22290;DHT22;11313;50.116;8.424;2023-02-28T16:30:21;25.10;36.80
22290;DHT22;11313;50.116;8.424;2023-02-28T16:32:48;25.10;36.70
22290;DHT22;11313;50.116;8.424;2023-02-28T16:35:15;25.10;36.60
22290;DHT22;11313;50.116;8.424;2023-02-28T16:37:41;25.10;36.40
22290;DHT22;11313;50.116;8.424;2023-02-28T16:40:17;25.10;36.30
22290;DHT22;11313;50.116;8.424;2023-02-28T16:42:44;25.10;36.10
22290;DHT22;11313;50.116;8.424;2023-02-28T16:45:22;25.20;36.70
22290;DHT22;11313;50.116;8.424;2023-02-28T16:47:48;25.10;36.00
22290;DHT22;11313;50.116;8.424;2023-02-28T16:50:19;25.10;36.00
22290;DHT22;11313;50.116;8.424;2023-02-28T16:52:46;25.10;35.90
22290;DHT22;11313;50.116;8.424;2023-02-28T16:55:12;25.10;35.70
22290;DHT22;11313;50.116;8.424;2023-02-28T16:57:38;25.10;35.70
22290;DHT22;11313;50.116;8.424;2023-02-28T17:00:05;25.10;35.60
22290;DHT22;11313;50.116;8.424;2023-02-28T17:02:33;25.10;35.50
22290;DHT22;11313;50.116;8.424;2023-02-28T17:04:59;25.10;35.40
22290;DHT22;11313;50.116;8.424;2023-02-28T17:07:24;25.10;35.40
22290;DHT22;11313;50.116;8.424;2023-02-28T17:09:50;25.00;36.10
22290;DHT22;11313;50.116;8.424;2023-02-28T17:12:15;25.10;35.20
22290;DHT22;11313;50.116;8.424;2023-02-28T17:14:41;25.00;35.20
22290;DHT22;11313;50.116;8.424;2023-02-28T17:17:07;25.00;35.10
22290;DHT22;11313;50.116;8.424;2023-02-28T17:19:33;25.00;35.00
22290;DHT22;11313;50.116;8.424;2023-02-28T17:21:59;25.00;34.90
22290;DHT22;11313;50.116;8.424;2023-02-28T17:24:25;25.00;34.80
22290;DHT22;11313;50.116;8.424;2023-02-28T17:26:51;25.00;35.00
22290;DHT22;11313;50.116;8.424;2023-02-28T17:29:19;24.90;35.30
22290;DHT22;11313;50.116;8.424;2023-02-28T17:31:45;24.90;35.40
22290;DHT22;11313;50.116;8.424;2023-02-28T17:34:11;24.90;35.40
22290;DHT22;11313;50.116;8.424;2023-02-28T17:36:37;24.90;35.50
22290;DHT22;11313;50.116;8.424;2023-02-28T17:39:04;24.90;35.60
22290;DHT22;11313;50.116;8.424;2023-02-28T17:41:34;24.90;35.60
22290;DHT22;11313;50.116;8.424;2023-02-28T17:43:59;24.90;36.30
22290;DHT22;11313;50.116;8.424;2023-02-28T17:46:25;24.90;35.90
22290;DHT22;11313;50.116;8.424;2023-02-28T17:48:52;24.90;36.40